Palo Alto, CA

12:00 PM PDT on October 01, 2016 (GMT -0700)
Palo Alto Of Santa Clara County | | Change Station

Elev 7 ft 37.46 °N, 122.12 °W | Updated 13 minutes ago

Clear
Clear
68 °F
Feels Like 68 °F
N
10
Wind Variable Wind from NNW

Today
High -- | Low -- °F
--% Chance of Precip.
Yesterday
High -- | Low -- °F
Precip. -- in
Pressure 30.14 in
Visibility 10.0 miles
Clouds Clear
Dew Point 52 °F
Humidity 56%
Rainfall 0.00 in
Snow Depth Not available.
7:04 AM 6:50 PM
New Moon, 1% visible
METAR KPAO 011847Z 33009KT 10SM SKC 20/11 A3014
Pressure 30.14 in
Visibility 10.0 miles
Clouds Clear
Dew Point 52 °F
Humidity 56%
Rainfall 0.00 in
Snow Depth Not available.
7:04 AM 6:50 PM
New Moon, 1% visible
METAR KPAO 011847Z 33009KT 10SM SKC 20/11 A3014

10-Day Weather Forecast

Almanac

Astronomy

Oct. 01, 2016 Rise Set
Actual Time
Civil Twilight
Nautical Twilight
Astronomical Twilight
Moon
Length of Visible Light
Length of Day
Tomorrow will be .
, % of the Moon is Illuminated

Today's Extremes

State Highs State Lows

Community

WunderPhotos

Upload Photos

1,942,990 photos uploaded!

WunderBlog® & News

Nearby

Air Quality

  Air Quality AQ Index Pollutant
Not available.

Snow Depth

Station Depth Elevation

Earthquake Activity

City Distance Mag. Time & Date
Minimum magnitude displayed is 2.5.

Coastal Water Temperatures

Place Temperature

Stations

Nearby Weather Stations

Station Location Temp. Windchill Dew Point Humidity Wind Precip. Elev Updated Type
                   

Watches & Warnings

There are currently no watches in effect.